createdAt,value
2022-08-31T00:02:42.176Z,33.13
2022-08-31T00:05:11.655Z,33.66
2022-08-31T00:07:40.293Z,33.57
2022-08-31T00:10:18.629Z,34.58
2022-08-31T00:12:49.881Z,34.07
2022-08-31T00:15:20.649Z,34.49
2022-08-31T00:17:53.939Z,34.23
2022-08-31T00:20:34.225Z,34.09
2022-08-31T00:23:03.731Z,34.01
2022-08-31T00:25:34.374Z,34.25
2022-08-31T00:28:03.177Z,33.68
2022-08-31T00:30:32.109Z,33.64
2022-08-31T00:33:00.264Z,34.20
2022-08-31T00:35:29.271Z,34.28
2022-08-31T00:37:58.204Z,34.33
2022-08-31T00:40:27.487Z,34.58
2022-08-31T00:42:57.621Z,34.61
2022-08-31T00:45:25.787Z,34.30
2022-08-31T00:47:57.740Z,35.08
2022-08-31T00:50:26.714Z,34.37
2022-08-31T00:52:57.809Z,34.64
2022-08-31T00:55:31.207Z,35.32
2022-08-31T00:58:03.943Z,35.18
2022-08-31T01:00:32.726Z,34.83
2022-08-31T01:03:03.669Z,34.96
2022-08-31T01:05:32.849Z,35.40
2022-08-31T01:08:02.107Z,34.94
2022-08-31T01:10:34.508Z,36.26
2022-08-31T01:13:04.548Z,36.06
2022-08-31T01:15:33.587Z,36.03
2022-08-31T01:18:05.273Z,36.13
2022-08-31T01:20:48.867Z,37.01
2022-08-31T01:23:23.468Z,36.65
2022-08-31T01:25:54.853Z,35.85
2022-08-31T01:28:23.261Z,35.65
2022-08-31T01:31:02.316Z,35.80
2022-08-31T01:33:33.403Z,35.33
2022-08-31T01:36:01.743Z,35.40
2022-08-31T01:38:32.713Z,34.87
2022-08-31T01:41:02.506Z,34.84
2022-08-31T01:43:33.882Z,34.69
2022-08-31T01:46:02.508Z,34.83
2022-08-31T01:48:31.243Z,35.18
2022-08-31T01:50:59.474Z,34.81
2022-08-31T01:53:27.878Z,34.90
2022-08-31T01:55:57.576Z,35.33
2022-08-31T01:58:25.679Z,35.26
2022-08-31T02:01:32.942Z,35.21
2022-08-31T02:04:00.831Z,35.20
2022-08-31T02:06:29.015Z,35.10
2022-08-31T02:08:56.982Z,35.49
2022-08-31T02:11:26.362Z,35.06
2022-08-31T02:13:54.648Z,35.22
2022-08-31T02:16:22.768Z,35.22
2022-08-31T02:18:50.976Z,35.76
2022-08-31T02:21:19.223Z,35.63
2022-08-31T02:23:47.389Z,35.84
2022-08-31T02:26:15.436Z,35.37
2022-08-31T02:28:47.951Z,35.59
2022-08-31T02:31:16.565Z,36.18
2022-08-31T02:33:52.281Z,35.72
2022-08-31T02:36:22.933Z,36.27
2022-08-31T02:38:52.579Z,36.10
2022-08-31T02:41:21.034Z,35.87
2022-08-31T02:43:51.192Z,36.36
2022-08-31T02:46:19.854Z,36.48
2022-08-31T02:48:57.854Z,36.04
2022-08-31T02:51:26.348Z,36.09
2022-08-31T02:53:54.261Z,36.71
2022-08-31T02:56:23.829Z,36.72
2022-08-31T02:58:55.290Z,36.23
2022-08-31T03:01:26.498Z,36.39
2022-08-31T03:03:54.707Z,36.36
2022-08-31T03:06:23.838Z,36.91
2022-08-31T03:08:52.029Z,36.77
2022-08-31T03:11:20.530Z,36.32
2022-08-31T03:13:48.873Z,36.51
2022-08-31T03:16:19.024Z,37.12
2022-08-31T03:18:48.761Z,37.37
2022-08-31T03:21:17.119Z,37.17
2022-08-31T03:23:46.152Z,37.26
2022-08-31T03:26:14.613Z,37.46
2022-08-31T03:28:43.176Z,37.26
2022-08-31T03:31:38.992Z,37.63
2022-08-31T03:34:07.439Z,37.21
2022-08-31T03:36:35.543Z,37.57
2022-08-31T03:39:03.862Z,37.25
2022-08-31T03:41:32.189Z,37.19
2022-08-31T03:44:02.008Z,37.60
2022-08-31T03:46:33.831Z,37.64
2022-08-31T03:49:07.699Z,37.46
2022-08-31T03:51:37.171Z,37.83
2022-08-31T03:54:05.802Z,37.58
2022-08-31T03:56:35.471Z,37.66
2022-08-31T03:59:04.195Z,37.67
2022-08-31T04:01:50.616Z,37.55
2022-08-31T04:04:38.533Z,38.16
2022-08-31T04:07:25.426Z,37.68
2022-08-31T04:10:12.838Z,37.96
2022-08-31T04:13:01.282Z,38.00
2022-08-31T04:15:48.561Z,37.64
2022-08-31T04:18:35.536Z,37.61
2022-08-31T04:21:06.028Z,38.44
2022-08-31T04:23:34.078Z,38.02
2022-08-31T04:26:02.100Z,38.31
2022-08-31T04:28:30.057Z,37.82
2022-08-31T04:30:58.169Z,38.01
2022-08-31T04:33:26.273Z,37.79
2022-08-31T04:35:54.172Z,38.48
2022-08-31T04:38:23.506Z,38.22
2022-08-31T04:40:52.570Z,38.16
2022-08-31T04:43:20.650Z,37.75
2022-08-31T04:45:52.463Z,37.71
2022-08-31T04:48:20.450Z,37.83
2022-08-31T04:50:50.716Z,37.87
2022-08-31T04:53:19.171Z,37.93
2022-08-31T04:55:48.634Z,38.32
2022-08-31T04:58:20.441Z,38.35
2022-08-31T05:00:48.393Z,37.90
2022-08-31T05:03:45.555Z,38.05
2022-08-31T05:06:17.933Z,38.13
2022-08-31T05:08:46.105Z,38.58
2022-08-31T05:11:23.018Z,38.45
2022-08-31T05:13:53.736Z,38.16
2022-08-31T05:16:22.082Z,38.73
2022-08-31T05:18:51.402Z,38.21
2022-08-31T05:21:27.513Z,38.30
2022-08-31T05:23:57.379Z,38.10
2022-08-31T05:26:33.452Z,38.73
2022-08-31T05:29:03.941Z,38.36
2022-08-31T05:31:36.060Z,38.41
2022-08-31T05:34:04.653Z,38.65
2022-08-31T05:36:38.634Z,38.70
2022-08-31T05:39:09.370Z,38.44
2022-08-31T05:41:40.138Z,39.18
2022-08-31T05:44:08.884Z,38.77
2022-08-31T05:46:38.634Z,38.70
2022-08-31T05:49:09.359Z,38.89
2022-08-31T05:51:40.029Z,38.57
2022-08-31T05:54:10.828Z,38.91
2022-08-31T05:56:42.990Z,39.27
2022-08-31T05:59:12.751Z,39.23
2022-08-31T06:01:42.364Z,39.39
2022-08-31T06:04:13.635Z,39.29
2022-08-31T06:06:43.100Z,38.92
2022-08-31T06:09:17.095Z,39.76
2022-08-31T06:11:48.203Z,39.37
2022-08-31T06:14:20.553Z,39.32
2022-08-31T06:16:50.295Z,39.50
2022-08-31T06:19:21.589Z,39.25
2022-08-31T06:21:51.364Z,39.72
2022-08-31T06:24:24.014Z,39.26
2022-08-31T06:26:58.805Z,40.07
2022-08-31T06:29:31.838Z,39.87
2022-08-31T06:32:10.144Z,39.38
2022-08-31T06:34:48.416Z,39.91
2022-08-31T06:37:36.464Z,40.00
2022-08-31T06:40:18.283Z,39.40
2022-08-31T06:43:20.016Z,39.50
2022-08-31T06:45:58.272Z,40.45
2022-08-31T06:49:01.845Z,40.03
2022-08-31T06:51:36.425Z,40.07
2022-08-31T06:54:27.507Z,39.69
2022-08-31T06:57:25.148Z,40.03
2022-08-31T07:00:13.748Z,40.45
2022-08-31T07:02:52.975Z,39.77
2022-08-31T07:05:25.733Z,39.68
2022-08-31T07:07:55.091Z,40.03
2022-08-31T07:10:23.291Z,39.59
2022-08-31T07:12:51.262Z,39.11
2022-08-31T07:15:20.695Z,39.47
2022-08-31T07:17:49.807Z,39.07
2022-08-31T07:20:17.907Z,39.30
2022-08-31T07:22:46.231Z,39.27
2022-08-31T07:25:49.547Z,38.88
2022-08-31T07:28:18.084Z,38.19
2022-08-31T07:30:50.223Z,37.94
2022-08-31T07:33:19.478Z,37.82
2022-08-31T07:35:53.194Z,37.67
2022-08-31T07:38:50.206Z,37.42
2022-08-31T07:41:50.598Z,36.34
2022-08-31T07:44:20.218Z,35.98
2022-08-31T07:46:53.003Z,35.80
2022-08-31T07:49:23.102Z,36.00
2022-08-31T07:52:00.136Z,35.39
2022-08-31T07:54:46.748Z,35.55
2022-08-31T07:57:31.191Z,35.37
2022-08-31T08:00:08.090Z,35.39
2022-08-31T08:02:50.797Z,34.90
2022-08-31T08:05:27.521Z,35.02
2022-08-31T08:08:15.810Z,35.01
2022-08-31T08:11:10.245Z,34.78
2022-08-31T08:13:46.540Z,34.77
2022-08-31T08:16:20.761Z,34.90
2022-08-31T08:19:09.151Z,35.03
2022-08-31T08:21:37.944Z,35.73
2022-08-31T08:24:07.620Z,35.59
2022-08-31T08:26:55.255Z,35.49
2022-08-31T08:29:34.129Z,35.40
2022-08-31T08:32:04.479Z,35.22
2022-08-31T08:34:34.276Z,34.95
2022-08-31T08:37:03.785Z,35.22
2022-08-31T08:39:31.822Z,35.25
2022-08-31T08:42:09.604Z,34.93
2022-08-31T08:44:39.008Z,35.04
2022-08-31T08:47:15.210Z,34.76
2022-08-31T08:49:54.742Z,35.00
2022-08-31T08:52:29.021Z,34.78
2022-08-31T08:55:03.111Z,34.25
2022-08-31T08:57:34.666Z,34.63
2022-08-31T09:00:10.971Z,34.17
2022-08-31T09:02:48.086Z,34.15
2022-08-31T09:05:35.157Z,33.88
2022-08-31T09:09:08.692Z,33.58
2022-08-31T09:11:52.645Z,33.30
2022-08-31T09:14:36.567Z,32.32
2022-08-31T09:17:16.356Z,32.08
2022-08-31T09:20:00.440Z,33.02
2022-08-31T09:22:34.097Z,32.33
2022-08-31T09:25:03.659Z,32.04
2022-08-31T09:28:00.839Z,31.91
2022-08-31T09:30:51.626Z,30.84
2022-08-31T09:33:21.438Z,31.55
2022-08-31T09:35:56.691Z,31.42
2022-08-31T09:38:30.865Z,31.77
2022-08-31T09:40:59.233Z,32.10
2022-08-31T09:43:37.598Z,31.23
2022-08-31T09:46:10.170Z,31.63
2022-08-31T09:48:51.438Z,31.41
2022-08-31T09:51:25.645Z,31.18
2022-08-31T09:54:17.227Z,31.44
2022-08-31T09:56:56.223Z,30.82
2022-08-31T09:59:36.439Z,30.77
2022-08-31T10:02:09.902Z,30.15
2022-08-31T10:04:51.812Z,29.78
2022-08-31T10:07:37.683Z,29.76
2022-08-31T10:10:27.885Z,30.25
2022-08-31T10:13:03.743Z,30.47
2022-08-31T10:15:41.329Z,30.56
2022-08-31T10:18:13.804Z,29.98
2022-08-31T10:20:49.518Z,30.34
2022-08-31T10:23:27.451Z,29.89
2022-08-31T10:26:03.047Z,29.71
2022-08-31T10:28:36.823Z,29.60
2022-08-31T10:31:13.873Z,29.15
2022-08-31T10:34:05.856Z,29.54
2022-08-31T10:36:40.886Z,29.41
2022-08-31T10:39:20.842Z,28.87
2022-08-31T10:41:51.912Z,29.06
2022-08-31T10:44:27.057Z,28.91
2022-08-31T10:46:58.583Z,28.87
2022-08-31T10:49:28.325Z,28.67
2022-08-31T10:52:03.550Z,28.39
2022-08-31T10:54:43.241Z,28.34
2022-08-31T10:57:32.167Z,28.18
2022-08-31T11:00:07.890Z,28.22
2022-08-31T11:02:58.757Z,27.45
2022-08-31T11:05:35.441Z,27.96
2022-08-31T11:08:23.995Z,27.75
2022-08-31T11:10:54.550Z,27.98
2022-08-31T11:13:49.575Z,27.80
2022-08-31T11:16:33.708Z,27.66
2022-08-31T11:19:36.237Z,27.75
2022-08-31T11:22:53.538Z,27.90
2022-08-31T11:25:47.549Z,27.43
2022-08-31T11:28:29.033Z,28.19
2022-08-31T11:31:01.566Z,28.12
2022-08-31T11:33:31.262Z,28.33
2022-08-31T11:36:07.379Z,28.20
2022-08-31T11:38:50.139Z,28.01
2022-08-31T11:41:41.390Z,28.41
2022-08-31T11:44:11.770Z,28.50
2022-08-31T11:47:05.773Z,28.29
2022-08-31T11:49:46.265Z,28.56
2022-08-31T11:52:29.521Z,28.16
2022-08-31T11:55:13.884Z,28.39
2022-08-31T11:58:20.739Z,28.51
2022-08-31T12:01:30.696Z,28.59
2022-08-31T12:04:03.878Z,28.69
2022-08-31T12:07:09.087Z,28.46
2022-08-31T12:10:04.533Z,28.46
2022-08-31T12:13:07.449Z,28.45
2022-08-31T12:15:53.121Z,28.55
2022-08-31T12:18:39.494Z,28.35
2022-08-31T12:21:33.191Z,28.66
2022-08-31T12:24:18.810Z,28.45
2022-08-31T12:27:17.106Z,28.28
2022-08-31T12:29:45.544Z,28.52
2022-08-31T12:32:22.809Z,28.21
2022-08-31T12:34:57.966Z,28.72
2022-08-31T12:37:29.761Z,28.36
2022-08-31T12:40:22.547Z,28.04
2022-08-31T12:42:57.583Z,28.21
2022-08-31T12:45:45.139Z,28.35
2022-08-31T12:48:26.194Z,28.31
2022-08-31T12:51:01.930Z,28.30
2022-08-31T12:53:55.363Z,28.45
2022-08-31T12:56:31.106Z,28.41
2022-08-31T12:59:15.886Z,28.24
2022-08-31T13:01:48.853Z,28.30
2022-08-31T13:04:19.859Z,28.39
2022-08-31T13:06:49.155Z,28.40
2022-08-31T13:09:32.055Z,28.13
2022-08-31T13:12:02.688Z,28.26
2022-08-31T13:14:39.583Z,28.47
2022-08-31T13:17:15.052Z,28.55
2022-08-31T13:19:50.416Z,28.53
2022-08-31T13:22:28.603Z,28.65
2022-08-31T13:25:12.016Z,28.48
2022-08-31T13:27:48.778Z,28.42
2022-08-31T13:30:20.505Z,28.38
2022-08-31T13:32:51.163Z,28.78
2022-08-31T13:35:22.383Z,28.56
2022-08-31T13:38:03.879Z,28.92
2022-08-31T13:40:39.442Z,29.50
2022-08-31T13:43:10.671Z,28.78
2022-08-31T13:45:50.489Z,28.93
2022-08-31T13:48:27.164Z,28.59
2022-08-31T13:51:02.192Z,28.56
2022-08-31T13:53:43.035Z,28.39
2022-08-31T13:56:55.963Z,28.54
2022-08-31T13:59:29.508Z,28.96
2022-08-31T14:01:59.895Z,29.05
2022-08-31T14:04:46.502Z,28.71
2022-08-31T14:07:21.533Z,28.91
2022-08-31T14:09:52.416Z,28.85
2022-08-31T14:12:34.921Z,28.87
2022-08-31T14:15:18.587Z,28.66
2022-08-31T14:21:09.971Z,28.77
2022-08-31T14:23:36.163Z,28.90
2022-08-31T14:26:07.486Z,28.81
2022-08-31T14:28:46.861Z,28.76
2022-08-31T14:31:24.538Z,28.91
2022-08-31T14:34:04.207Z,28.69
2022-08-31T14:36:35.582Z,28.49
2022-08-31T14:39:03.880Z,28.39
2022-08-31T14:41:33.831Z,28.68
2022-08-31T14:44:10.319Z,27.95
2022-08-31T14:46:40.304Z,28.08
2022-08-31T14:49:08.737Z,27.82
2022-08-31T14:51:39.208Z,27.53
2022-08-31T14:54:09.015Z,27.53
2022-08-31T14:56:48.046Z,27.39
2022-08-31T14:59:21.827Z,27.36
2022-08-31T15:01:53.253Z,27.72
2022-08-31T15:04:22.765Z,27.72
2022-08-31T15:06:55.141Z,27.33
2022-08-31T15:09:23.790Z,27.32
2022-08-31T15:11:52.244Z,27.30
2022-08-31T15:14:22.399Z,27.28
2022-08-31T15:16:51.369Z,27.39
2022-08-31T15:19:19.682Z,27.08
2022-08-31T15:21:58.710Z,27.11
2022-08-31T15:24:31.349Z,27.05
2022-08-31T15:27:00.020Z,27.01
2022-08-31T15:29:30.478Z,27.19
2022-08-31T15:31:59.805Z,27.33
2022-08-31T15:34:31.149Z,27.07
2022-08-31T15:37:02.394Z,27.16
2022-08-31T15:39:35.017Z,27.05
2022-08-31T15:42:05.038Z,27.08
2022-08-31T15:44:35.304Z,27.06
2022-08-31T15:47:21.601Z,27.03
2022-08-31T15:49:51.136Z,27.09
2022-08-31T15:52:20.114Z,26.98
2022-08-31T15:54:49.493Z,26.92
2022-08-31T15:57:17.599Z,27.24
2022-08-31T15:59:50.106Z,27.09
2022-08-31T16:02:20.504Z,26.92
2022-08-31T16:04:50.757Z,26.68
2022-08-31T16:07:19.025Z,26.64
2022-08-31T16:09:47.367Z,26.58
2022-08-31T16:12:16.633Z,26.44
2022-08-31T16:14:45.559Z,26.39
2022-08-31T16:17:19.375Z,26.27
2022-08-31T16:19:47.432Z,26.44
2022-08-31T16:22:16.226Z,26.28
2022-08-31T16:24:44.837Z,26.13
2022-08-31T16:27:16.441Z,26.09
2022-08-31T16:29:45.710Z,26.46
2022-08-31T16:32:15.121Z,26.22
2022-08-31T16:34:43.313Z,26.33
2022-08-31T16:37:11.601Z,26.36
2022-08-31T16:39:42.069Z,26.36
2022-08-31T16:42:13.034Z,26.48
2022-08-31T16:44:43.798Z,26.30
2022-08-31T16:47:12.781Z,26.14
2022-08-31T16:49:43.503Z,25.96
2022-08-31T16:52:13.618Z,26.15
2022-08-31T16:54:44.947Z,26.25
2022-08-31T16:57:15.000Z,26.12
2022-08-31T16:59:43.766Z,26.20
2022-08-31T17:02:13.551Z,25.99
2022-08-31T17:04:53.310Z,25.81
2022-08-31T17:07:23.567Z,26.21
2022-08-31T17:09:52.429Z,25.99
2022-08-31T17:12:21.479Z,25.95
2022-08-31T17:14:52.540Z,25.97
2022-08-31T17:17:22.455Z,25.81
2022-08-31T17:19:53.412Z,25.68
2022-08-31T17:22:31.789Z,25.96
2022-08-31T17:25:03.107Z,26.02
2022-08-31T17:27:33.477Z,25.99
2022-08-31T17:30:05.441Z,25.99
2022-08-31T17:32:36.509Z,25.89
2022-08-31T17:35:11.223Z,25.84
2022-08-31T17:37:41.159Z,25.95
2022-08-31T17:40:14.363Z,25.97
2022-08-31T17:42:42.603Z,25.95
2022-08-31T17:45:11.758Z,25.68
2022-08-31T17:47:40.098Z,25.91
2022-08-31T17:50:10.421Z,25.92
2022-08-31T17:52:39.050Z,25.67
2022-08-31T17:55:07.965Z,25.75
2022-08-31T17:57:36.285Z,25.86
2022-08-31T18:00:05.591Z,25.76
2022-08-31T18:02:37.776Z,25.83
2022-08-31T18:05:11.615Z,25.53
2022-08-31T18:07:41.769Z,26.01
2022-08-31T18:10:11.494Z,25.84
2022-08-31T18:12:41.901Z,26.00
2022-08-31T18:15:11.987Z,26.01
2022-08-31T18:17:40.548Z,25.79
2022-08-31T18:20:10.779Z,26.04
2022-08-31T18:22:39.862Z,26.04
2022-08-31T18:25:10.312Z,26.02
2022-08-31T18:27:38.589Z,25.90
2022-08-31T18:30:07.973Z,26.07
2022-08-31T18:32:36.819Z,26.40
2022-08-31T18:35:14.187Z,26.50
2022-08-31T18:37:42.454Z,26.47
2022-08-31T18:40:29.676Z,26.65
2022-08-31T18:43:15.284Z,26.77
2022-08-31T18:45:48.046Z,26.81
2022-08-31T18:48:32.113Z,26.50
2022-08-31T18:51:03.119Z,26.76
2022-08-31T18:53:32.910Z,26.91
2022-08-31T18:56:08.343Z,26.71
2022-08-31T18:58:37.089Z,26.73
2022-08-31T19:01:05.909Z,26.94
2022-08-31T19:03:34.081Z,26.92
2022-08-31T19:06:02.216Z,26.97
2022-08-31T19:08:33.568Z,26.84
2022-08-31T19:11:07.089Z,26.92
2022-08-31T19:13:35.237Z,27.07
2022-08-31T19:16:14.749Z,27.28
2022-08-31T19:18:44.889Z,27.21
2022-08-31T19:21:15.435Z,27.43
2022-08-31T19:23:44.103Z,27.43
2022-08-31T19:26:19.610Z,27.34
2022-08-31T19:28:48.895Z,27.37
2022-08-31T19:31:18.835Z,27.43
2022-08-31T19:33:47.431Z,27.38
2022-08-31T19:36:15.847Z,27.17
2022-08-31T19:38:47.531Z,27.41
2022-08-31T19:41:19.537Z,27.31
2022-08-31T19:43:54.948Z,27.20
2022-08-31T19:46:33.414Z,27.59
2022-08-31T19:49:02.587Z,27.86
2022-08-31T19:51:31.620Z,27.14
2022-08-31T19:54:01.269Z,27.62
2022-08-31T19:56:31.634Z,27.82
2022-08-31T19:59:00.791Z,27.32
2022-08-31T20:01:34.070Z,27.63
2022-08-31T20:04:07.569Z,27.44
2022-08-31T20:06:35.626Z,27.78
2022-08-31T20:09:05.570Z,27.61
2022-08-31T20:11:37.018Z,27.37
2022-08-31T20:14:05.569Z,27.47
2022-08-31T20:16:36.320Z,27.33
2022-08-31T20:19:05.981Z,27.53
2022-08-31T20:21:35.618Z,27.48
2022-08-31T20:24:06.583Z,27.72
2022-08-31T20:26:47.376Z,27.58
2022-08-31T20:29:21.464Z,27.72
2022-08-31T20:31:51.408Z,27.55
2022-08-31T20:34:22.163Z,27.64
2022-08-31T20:36:59.934Z,27.54
2022-08-31T20:39:31.418Z,27.59
2022-08-31T20:42:03.444Z,27.87
2022-08-31T20:44:48.887Z,27.77
2022-08-31T20:47:35.099Z,27.55
2022-08-31T20:50:07.235Z,27.62
2022-08-31T20:52:36.462Z,27.92
2022-08-31T20:55:07.440Z,27.79
2022-08-31T20:57:40.407Z,27.73
2022-08-31T21:00:10.723Z,27.68
2022-08-31T21:02:39.867Z,27.68
2022-08-31T21:05:37.040Z,27.87
2022-08-31T21:07:58.457Z,27.83
2022-08-31T21:10:37.054Z,27.92
2022-08-31T21:13:10.318Z,27.45
2022-08-31T21:15:42.934Z,27.31
2022-08-31T21:18:11.218Z,27.47
2022-08-31T21:20:39.295Z,27.54
2022-08-31T21:23:10.408Z,27.70
2022-08-31T21:25:43.809Z,27.78
2022-08-31T21:28:17.021Z,27.48
2022-08-31T21:30:47.075Z,27.37
2022-08-31T21:33:16.630Z,27.39
2022-08-31T21:35:44.627Z,27.65
2022-08-31T21:38:13.344Z,27.49
2022-08-31T21:40:48.537Z,27.95
2022-08-31T21:43:18.253Z,27.84
2022-08-31T21:45:46.813Z,27.73
2022-08-31T21:48:14.918Z,27.75
2022-08-31T21:50:42.923Z,27.80
2022-08-31T21:53:11.829Z,28.08
2022-08-31T21:55:39.830Z,28.01
2022-08-31T21:58:07.839Z,27.90
2022-08-31T22:00:42.079Z,27.73
2022-08-31T22:03:10.415Z,28.00
2022-08-31T22:05:39.632Z,28.19
2022-08-31T22:08:10.294Z,28.00
2022-08-31T22:10:41.043Z,27.83
2022-08-31T22:13:11.496Z,27.66
2022-08-31T22:15:41.169Z,28.12
2022-08-31T22:18:46.433Z,28.00
2022-08-31T22:20:58.948Z,27.94
2022-08-31T22:23:27.341Z,28.36
2022-08-31T22:25:55.344Z,28.19
2022-08-31T22:28:27.677Z,28.12
2022-08-31T22:30:57.149Z,28.86
2022-08-31T22:33:25.150Z,28.09
2022-08-31T22:35:53.363Z,28.33
2022-08-31T22:38:21.372Z,28.59
2022-08-31T22:40:50.948Z,28.09
2022-08-31T22:43:19.070Z,28.39
2022-08-31T22:45:48.857Z,28.56
2022-08-31T22:48:18.579Z,28.76
2022-08-31T22:50:46.840Z,28.78
2022-08-31T22:53:14.872Z,28.84
2022-08-31T22:55:43.111Z,28.42
2022-08-31T22:58:12.500Z,28.75
2022-08-31T23:00:41.534Z,28.62
2022-08-31T23:03:14.865Z,28.63
2022-08-31T23:05:45.114Z,28.96
2022-08-31T23:08:13.982Z,28.98
2022-08-31T23:10:44.224Z,29.21
2022-08-31T23:13:12.165Z,28.90
2022-08-31T23:15:40.946Z,29.05
2022-08-31T23:18:10.655Z,28.79
2022-08-31T23:20:41.757Z,29.26
2022-08-31T23:23:11.392Z,29.50
2022-08-31T23:25:40.457Z,29.58
2022-08-31T23:28:08.692Z,29.66
2022-08-31T23:30:37.839Z,29.51
2022-08-31T23:33:05.881Z,29.58
2022-08-31T23:35:34.682Z,29.91
2022-08-31T23:38:02.927Z,29.81
2022-08-31T23:40:34.007Z,29.37
2022-08-31T23:43:02.165Z,29.93
2022-08-31T23:45:30.047Z,29.59
2022-08-31T23:47:58.007Z,29.82
2022-08-31T23:50:26.057Z,30.14
2022-08-31T23:52:54.024Z,29.99
2022-08-31T23:55:28.574Z,30.38
2022-08-31T23:57:59.355Z,30.30
